Accueil
METAR-TAF:

METAR-TAF

Aéroports :

Salem-Leckrone Airport

Salem, Illinois, États-Unis

latitude: 38-38-34N, longitude: 088-57-51W, altitude: 175 m

Observation

Le bulletin a été fait il y a 23 minutes, à 21:55 UTC
Vent 5 kt de est/sud-est
Température 11°C
Humidité 66%
Pression 1021 hPa
Visibilité: 16.1 km
Ciel clair

METAR: KSLO 202155Z AUTO 12005KT 10SM CLR 11/05 A3014 RMK AO2 T01070051

Heure: 16:18 (22:18 UTC)


TAF: absent

Observations et prévisions météorologiques de plus de 4000 aéroports (messages METAR et TAF).

Les stations disponibles sont représentées par des disques jaunes et rouges sur la carte.

Passer la souris dessus pour voir le nom de la station.

Cliquer dessus pour voir les observations et prévisions météorologiques.

Pour changer de carte: cliquez sur les boutons verts avec une croix noire pour zoomer, sur le bouton vert avec un tiret pour effectuer un zoom arrière, ou sur les flèches vertes pour les cartes adjacentes.


METAR-TAF: